Terminal Aerodrome Forecast
Issued by NWS

Home | Current Version | Previous Version | Text Only | Print | Product List | Glossary On
Versions: 1 2 3 4 5 6 7 8 9 10 11 12 13 14 15 16 17 18 19 20 21 22 23 24 25
000
FTUS41 KOKX 292000 AAA
TAFTEB
TAF AMD
KTEB 292036Z 2920/3018 17006KT P6SM BKN100 BKN150
     FM300300 19006KT P6SM BKN040
     FM300400 19006KT 4SM -SN SCT020 OVC035
     FM300600 20006KT 2SM -SN OVC015
     FM301100 24007KT 2SM -SN OVC015
     FM301300 29009KT 4SM -SN OVC015
     FM301500 31011G18KT P6SM VCSH SCT015 BKN030=

USA.gov is the U.S. government's official web portal to all federal, state and local government web resources and services.